Aviation Digital Data Service (ADDS)

Output produced by METARs form (1702 UTC 17 October 2017)
found at http://aviationweather.gov/adds/metars/
 
KLCH 171653Z 02007KT 10SM CLR 22/07 A3024 RMK AO2 SLP247 T02170072